sensor_id;sensor_type;location;lat;lon;timestamp;P1;durP1;ratioP1;P2;durP2;ratioP2
33138;SDS011;19501;50.948;5.316;2023-04-03T00:01:15;36.17;;;12.98;;
33138;SDS011;19501;50.948;5.316;2023-04-03T00:03:42;38.15;;;13.20;;
33138;SDS011;19501;50.948;5.316;2023-04-03T00:06:08;31.77;;;13.60;;
33138;SDS011;19501;50.948;5.316;2023-04-03T00:08:36;28.95;;;12.43;;
33138;SDS011;19501;50.948;5.316;2023-04-03T00:11:02;27.33;;;12.05;;
33138;SDS011;19501;50.948;5.316;2023-04-03T00:13:29;28.85;;;12.32;;
33138;SDS011;19501;50.948;5.316;2023-04-03T00:15:56;25.83;;;11.93;;
33138;SDS011;19501;50.948;5.316;2023-04-03T00:18:21;26.25;;;12.20;;
33138;SDS011;19501;50.948;5.316;2023-04-03T00:20:47;24.95;;;11.30;;
33138;SDS011;19501;50.948;5.316;2023-04-03T00:23:13;24.77;;;12.40;;
33138;SDS011;19501;50.948;5.316;2023-04-03T00:25:39;24.02;;;11.48;;
33138;SDS011;19501;50.948;5.316;2023-04-03T00:28:08;25.48;;;11.80;;
33138;SDS011;19501;50.948;5.316;2023-04-03T00:30:34;25.15;;;12.00;;
33138;SDS011;19501;50.948;5.316;2023-04-03T00:33:00;28.63;;;12.50;;
33138;SDS011;19501;50.948;5.316;2023-04-03T00:35:26;27.13;;;12.35;;
33138;SDS011;19501;50.948;5.316;2023-04-03T00:37:52;27.23;;;11.68;;
33138;SDS011;19501;50.948;5.316;2023-04-03T00:40:21;26.08;;;11.20;;
33138;SDS011;19501;50.948;5.316;2023-04-03T00:42:48;25.70;;;10.63;;
33138;SDS011;19501;50.948;5.316;2023-04-03T00:47:48;24.52;;;11.65;;
33138;SDS011;19501;50.948;5.316;2023-04-03T00:50:17;28.67;;;11.68;;
33138;SDS011;19501;50.948;5.316;2023-04-03T00:52:43;27.67;;;11.93;;
33138;SDS011;19501;50.948;5.316;2023-04-03T00:55:11;23.02;;;11.52;;
33138;SDS011;19501;50.948;5.316;2023-04-03T00:57:41;22.95;;;11.35;;
33138;SDS011;19501;50.948;5.316;2023-04-03T01:00:09;25.25;;;11.40;;
33138;SDS011;19501;50.948;5.316;2023-04-03T01:02:37;21.27;;;10.40;;
33138;SDS011;19501;50.948;5.316;2023-04-03T01:05:05;25.95;;;12.30;;
33138;SDS011;19501;50.948;5.316;2023-04-03T01:07:31;24.33;;;10.77;;
33138;SDS011;19501;50.948;5.316;2023-04-03T01:10:00;23.10;;;10.52;;
33138;SDS011;19501;50.948;5.316;2023-04-03T01:12:29;25.60;;;11.35;;
33138;SDS011;19501;50.948;5.316;2023-04-03T01:15:02;25.10;;;11.15;;
33138;SDS011;19501;50.948;5.316;2023-04-03T01:22:59;22.98;;;10.45;;
33138;SDS011;19501;50.948;5.316;2023-04-03T01:25:39;24.30;;;10.48;;
33138;SDS011;19501;50.948;5.316;2023-04-03T01:28:06;25.33;;;10.85;;
33138;SDS011;19501;50.948;5.316;2023-04-03T01:30:35;25.15;;;10.70;;
33138;SDS011;19501;50.948;5.316;2023-04-03T01:33:06;24.75;;;10.68;;
33138;SDS011;19501;50.948;5.316;2023-04-03T01:35:32;25.30;;;10.85;;
33138;SDS011;19501;50.948;5.316;2023-04-03T01:37:57;25.45;;;11.05;;
33138;SDS011;19501;50.948;5.316;2023-04-03T01:40:23;24.38;;;10.82;;
33138;SDS011;19501;50.948;5.316;2023-04-03T01:42:49;26.83;;;11.23;;
33138;SDS011;19501;50.948;5.316;2023-04-03T01:45:14;24.13;;;10.98;;
33138;SDS011;19501;50.948;5.316;2023-04-03T01:47:40;25.27;;;10.88;;
33138;SDS011;19501;50.948;5.316;2023-04-03T01:50:06;27.40;;;11.50;;
33138;SDS011;19501;50.948;5.316;2023-04-03T01:52:31;26.70;;;11.00;;
33138;SDS011;19501;50.948;5.316;2023-04-03T01:54:57;25.13;;;10.90;;
33138;SDS011;19501;50.948;5.316;2023-04-03T01:57:23;27.63;;;10.93;;
33138;SDS011;19501;50.948;5.316;2023-04-03T01:59:49;24.58;;;10.60;;
33138;SDS011;19501;50.948;5.316;2023-04-03T02:02:14;22.73;;;10.57;;
33138;SDS011;19501;50.948;5.316;2023-04-03T02:04:44;24.90;;;11.25;;
33138;SDS011;19501;50.948;5.316;2023-04-03T02:07:12;23.50;;;10.98;;
33138;SDS011;19501;50.948;5.316;2023-04-03T02:09:38;24.67;;;10.93;;
33138;SDS011;19501;50.948;5.316;2023-04-03T02:12:03;25.17;;;11.27;;
33138;SDS011;19501;50.948;5.316;2023-04-03T02:14:29;25.90;;;11.00;;
33138;SDS011;19501;50.948;5.316;2023-04-03T02:16:55;27.33;;;11.45;;
33138;SDS011;19501;50.948;5.316;2023-04-03T02:19:20;25.30;;;11.45;;
33138;SDS011;19501;50.948;5.316;2023-04-03T02:21:46;25.25;;;11.60;;
33138;SDS011;19501;50.948;5.316;2023-04-03T02:24:12;29.10;;;11.88;;
33138;SDS011;19501;50.948;5.316;2023-04-03T02:26:37;22.85;;;10.82;;
33138;SDS011;19501;50.948;5.316;2023-04-03T02:29:03;23.17;;;10.75;;
33138;SDS011;19501;50.948;5.316;2023-04-03T02:31:29;26.48;;;11.25;;
33138;SDS011;19501;50.948;5.316;2023-04-03T02:33:55;24.40;;;10.82;;
33138;SDS011;19501;50.948;5.316;2023-04-03T02:36:20;24.02;;;11.27;;
33138;SDS011;19501;50.948;5.316;2023-04-03T02:38:46;25.75;;;11.82;;
33138;SDS011;19501;50.948;5.316;2023-04-03T02:41:13;28.10;;;11.38;;
33138;SDS011;19501;50.948;5.316;2023-04-03T02:43:39;25.13;;;11.73;;
33138;SDS011;19501;50.948;5.316;2023-04-03T02:46:04;25.25;;;11.25;;
33138;SDS011;19501;50.948;5.316;2023-04-03T02:48:31;25.33;;;11.27;;
33138;SDS011;19501;50.948;5.316;2023-04-03T02:50:56;23.40;;;11.13;;
33138;SDS011;19501;50.948;5.316;2023-04-03T02:53:22;24.38;;;10.70;;
33138;SDS011;19501;50.948;5.316;2023-04-03T02:55:48;23.73;;;10.80;;
33138;SDS011;19501;50.948;5.316;2023-04-03T02:58:14;26.02;;;11.50;;
33138;SDS011;19501;50.948;5.316;2023-04-03T03:00:39;31.10;;;12.10;;
33138;SDS011;19501;50.948;5.316;2023-04-03T03:03:06;30.77;;;12.60;;
33138;SDS011;19501;50.948;5.316;2023-04-03T03:05:31;23.33;;;11.38;;
33138;SDS011;19501;50.948;5.316;2023-04-03T03:07:57;28.60;;;12.65;;
33138;SDS011;19501;50.948;5.316;2023-04-03T03:10:23;25.13;;;11.48;;
33138;SDS011;19501;50.948;5.316;2023-04-03T03:12:51;25.02;;;11.98;;
33138;SDS011;19501;50.948;5.316;2023-04-03T03:15:20;27.05;;;12.30;;
33138;SDS011;19501;50.948;5.316;2023-04-03T03:17:46;25.88;;;12.52;;
33138;SDS011;19501;50.948;5.316;2023-04-03T03:20:12;24.80;;;12.45;;
33138;SDS011;19501;50.948;5.316;2023-04-03T03:22:40;25.15;;;11.75;;
33138;SDS011;19501;50.948;5.316;2023-04-03T03:25:06;29.70;;;12.75;;
33138;SDS011;19501;50.948;5.316;2023-04-03T03:27:31;28.00;;;13.18;;
33138;SDS011;19501;50.948;5.316;2023-04-03T03:29:57;27.00;;;12.18;;
33138;SDS011;19501;50.948;5.316;2023-04-03T03:32:23;28.83;;;12.85;;
33138;SDS011;19501;50.948;5.316;2023-04-03T03:34:48;28.80;;;13.23;;
33138;SDS011;19501;50.948;5.316;2023-04-03T03:37:14;31.35;;;13.55;;
33138;SDS011;19501;50.948;5.316;2023-04-03T03:39:40;28.88;;;13.20;;
33138;SDS011;19501;50.948;5.316;2023-04-03T03:42:06;26.63;;;12.27;;
33138;SDS011;19501;50.948;5.316;2023-04-03T03:44:31;29.83;;;13.43;;
33138;SDS011;19501;50.948;5.316;2023-04-03T03:46:57;30.10;;;13.40;;
33138;SDS011;19501;50.948;5.316;2023-04-03T03:49:22;28.42;;;13.35;;
33138;SDS011;19501;50.948;5.316;2023-04-03T03:51:48;28.13;;;13.13;;
33138;SDS011;19501;50.948;5.316;2023-04-03T03:54:14;28.50;;;13.57;;
33138;SDS011;19501;50.948;5.316;2023-04-03T03:56:40;29.33;;;13.15;;
33138;SDS011;19501;50.948;5.316;2023-04-03T03:59:06;29.73;;;13.23;;
33138;SDS011;19501;50.948;5.316;2023-04-03T04:01:34;28.40;;;12.85;;
33138;SDS011;19501;50.948;5.316;2023-04-03T04:04:00;28.33;;;13.27;;
33138;SDS011;19501;50.948;5.316;2023-04-03T04:06:25;27.70;;;12.85;;
33138;SDS011;19501;50.948;5.316;2023-04-03T04:08:51;29.25;;;13.93;;
33138;SDS011;19501;50.948;5.316;2023-04-03T04:11:16;29.50;;;13.27;;
33138;SDS011;19501;50.948;5.316;2023-04-03T04:13:42;28.65;;;13.73;;
33138;SDS011;19501;50.948;5.316;2023-04-03T04:16:11;32.22;;;14.25;;
33138;SDS011;19501;50.948;5.316;2023-04-03T04:18:36;29.17;;;12.85;;
33138;SDS011;19501;50.948;5.316;2023-04-03T04:21:02;31.98;;;14.75;;
33138;SDS011;19501;50.948;5.316;2023-04-03T04:23:28;29.73;;;13.68;;
33138;SDS011;19501;50.948;5.316;2023-04-03T04:25:53;28.40;;;13.38;;
33138;SDS011;19501;50.948;5.316;2023-04-03T04:28:19;30.45;;;14.00;;
33138;SDS011;19501;50.948;5.316;2023-04-03T04:30:45;29.17;;;14.05;;
33138;SDS011;19501;50.948;5.316;2023-04-03T04:33:10;31.30;;;14.48;;
33138;SDS011;19501;50.948;5.316;2023-04-03T04:35:36;28.92;;;14.65;;
33138;SDS011;19501;50.948;5.316;2023-04-03T04:38:02;34.65;;;16.80;;
33138;SDS011;19501;50.948;5.316;2023-04-03T04:40:28;34.63;;;17.98;;
33138;SDS011;19501;50.948;5.316;2023-04-03T04:42:54;35.03;;;17.52;;
33138;SDS011;19501;50.948;5.316;2023-04-03T04:45:20;39.15;;;17.40;;
33138;SDS011;19501;50.948;5.316;2023-04-03T04:47:45;35.63;;;16.70;;
33138;SDS011;19501;50.948;5.316;2023-04-03T04:50:11;35.30;;;16.92;;
33138;SDS011;19501;50.948;5.316;2023-04-03T04:52:37;31.15;;;15.63;;
33138;SDS011;19501;50.948;5.316;2023-04-03T04:55:03;35.50;;;18.45;;
33138;SDS011;19501;50.948;5.316;2023-04-03T04:57:30;35.65;;;18.60;;
33138;SDS011;19501;50.948;5.316;2023-04-03T04:59:58;37.00;;;18.77;;
33138;SDS011;19501;50.948;5.316;2023-04-03T05:02:25;42.40;;;19.98;;
33138;SDS011;19501;50.948;5.316;2023-04-03T05:04:50;39.15;;;20.55;;
33138;SDS011;19501;50.948;5.316;2023-04-03T05:07:17;38.10;;;19.33;;
33138;SDS011;19501;50.948;5.316;2023-04-03T05:09:42;34.63;;;16.67;;
33138;SDS011;19501;50.948;5.316;2023-04-03T05:12:08;36.28;;;18.20;;
33138;SDS011;19501;50.948;5.316;2023-04-03T05:14:34;32.17;;;17.10;;
33138;SDS011;19501;50.948;5.316;2023-04-03T05:16:59;30.30;;;15.57;;
33138;SDS011;19501;50.948;5.316;2023-04-03T05:19:25;32.40;;;16.40;;
33138;SDS011;19501;50.948;5.316;2023-04-03T05:21:51;34.55;;;17.17;;
33138;SDS011;19501;50.948;5.316;2023-04-03T05:24:16;33.17;;;17.45;;
33138;SDS011;19501;50.948;5.316;2023-04-03T05:26:43;38.10;;;20.70;;
33138;SDS011;19501;50.948;5.316;2023-04-03T05:29:09;42.50;;;21.67;;
33138;SDS011;19501;50.948;5.316;2023-04-03T05:31:35;43.75;;;23.65;;
33138;SDS011;19501;50.948;5.316;2023-04-03T05:34:01;43.50;;;25.23;;
33138;SDS011;19501;50.948;5.316;2023-04-03T05:36:27;48.80;;;26.40;;
33138;SDS011;19501;50.948;5.316;2023-04-03T05:38:53;45.97;;;26.73;;
33138;SDS011;19501;50.948;5.316;2023-04-03T05:41:21;45.80;;;26.00;;
33138;SDS011;19501;50.948;5.316;2023-04-03T05:43:47;46.85;;;25.55;;
33138;SDS011;19501;50.948;5.316;2023-04-03T05:46:17;44.78;;;25.33;;
33138;SDS011;19501;50.948;5.316;2023-04-03T05:48:44;46.00;;;26.17;;
33138;SDS011;19501;50.948;5.316;2023-04-03T05:51:17;47.15;;;25.67;;
33138;SDS011;19501;50.948;5.316;2023-04-03T05:53:45;46.58;;;25.83;;
33138;SDS011;19501;50.948;5.316;2023-04-03T05:56:12;43.80;;;25.17;;
33138;SDS011;19501;50.948;5.316;2023-04-03T05:58:38;51.10;;;26.52;;
33138;SDS011;19501;50.948;5.316;2023-04-03T06:01:04;46.58;;;25.95;;
33138;SDS011;19501;50.948;5.316;2023-04-03T06:03:30;44.35;;;24.63;;
33138;SDS011;19501;50.948;5.316;2023-04-03T06:05:56;47.83;;;24.90;;
33138;SDS011;19501;50.948;5.316;2023-04-03T06:08:22;47.45;;;25.55;;
33138;SDS011;19501;50.948;5.316;2023-04-03T06:10:48;42.30;;;22.67;;
33138;SDS011;19501;50.948;5.316;2023-04-03T06:13:15;39.33;;;22.95;;
33138;SDS011;19501;50.948;5.316;2023-04-03T06:15:41;40.10;;;22.55;;
33138;SDS011;19501;50.948;5.316;2023-04-03T06:18:07;38.38;;;21.48;;
33138;SDS011;19501;50.948;5.316;2023-04-03T06:20:33;43.72;;;21.52;;
33138;SDS011;19501;50.948;5.316;2023-04-03T06:22:58;37.40;;;20.77;;
33138;SDS011;19501;50.948;5.316;2023-04-03T06:25:25;38.25;;;21.52;;
33138;SDS011;19501;50.948;5.316;2023-04-03T06:27:51;38.60;;;20.33;;
33138;SDS011;19501;50.948;5.316;2023-04-03T06:30:17;41.05;;;18.52;;
33138;SDS011;19501;50.948;5.316;2023-04-03T06:32:43;34.28;;;19.38;;
33138;SDS011;19501;50.948;5.316;2023-04-03T06:35:08;35.92;;;19.38;;
33138;SDS011;19501;50.948;5.316;2023-04-03T06:37:34;37.35;;;18.38;;
33138;SDS011;19501;50.948;5.316;2023-04-03T06:40:02;38.90;;;18.85;;
33138;SDS011;19501;50.948;5.316;2023-04-03T06:42:29;35.35;;;17.30;;
33138;SDS011;19501;50.948;5.316;2023-04-03T06:44:55;33.13;;;17.42;;
33138;SDS011;19501;50.948;5.316;2023-04-03T06:47:23;35.78;;;18.30;;
33138;SDS011;19501;50.948;5.316;2023-04-03T06:49:49;33.40;;;15.95;;
33138;SDS011;19501;50.948;5.316;2023-04-03T06:52:15;27.83;;;15.18;;
33138;SDS011;19501;50.948;5.316;2023-04-03T06:54:40;30.67;;;15.32;;
33138;SDS011;19501;50.948;5.316;2023-04-03T06:57:07;26.45;;;13.40;;
33138;SDS011;19501;50.948;5.316;2023-04-03T06:59:32;29.23;;;13.73;;
33138;SDS011;19501;50.948;5.316;2023-04-03T07:01:58;30.67;;;13.85;;
33138;SDS011;19501;50.948;5.316;2023-04-03T07:04:25;30.67;;;13.90;;
33138;SDS011;19501;50.948;5.316;2023-04-03T07:06:51;26.17;;;12.32;;
33138;SDS011;19501;50.948;5.316;2023-04-03T07:09:17;29.45;;;13.35;;
33138;SDS011;19501;50.948;5.316;2023-04-03T07:11:43;24.08;;;11.82;;
33138;SDS011;19501;50.948;5.316;2023-04-03T07:14:09;25.83;;;10.70;;
33138;SDS011;19501;50.948;5.316;2023-04-03T07:16:35;24.50;;;10.50;;
33138;SDS011;19501;50.948;5.316;2023-04-03T07:19:01;21.98;;;9.77;;
33138;SDS011;19501;50.948;5.316;2023-04-03T07:21:27;24.65;;;10.57;;
33138;SDS011;19501;50.948;5.316;2023-04-03T07:23:54;21.88;;;10.13;;
33138;SDS011;19501;50.948;5.316;2023-04-03T07:26:20;25.48;;;10.30;;
33138;SDS011;19501;50.948;5.316;2023-04-03T07:28:47;22.63;;;10.48;;
33138;SDS011;19501;50.948;5.316;2023-04-03T07:31:14;23.98;;;10.40;;
33138;SDS011;19501;50.948;5.316;2023-04-03T07:33:41;26.58;;;10.98;;
33138;SDS011;19501;50.948;5.316;2023-04-03T07:36:08;30.27;;;11.32;;
33138;SDS011;19501;50.948;5.316;2023-04-03T07:38:35;23.27;;;10.15;;
33138;SDS011;19501;50.948;5.316;2023-04-03T07:41:04;24.80;;;9.55;;
33138;SDS011;19501;50.948;5.316;2023-04-03T07:43:30;22.58;;;10.13;;
33138;SDS011;19501;50.948;5.316;2023-04-03T07:45:56;25.13;;;9.77;;
33138;SDS011;19501;50.948;5.316;2023-04-03T07:48:23;21.70;;;9.52;;
33138;SDS011;19501;50.948;5.316;2023-04-03T07:50:52;22.02;;;9.25;;
33138;SDS011;19501;50.948;5.316;2023-04-03T07:53:18;25.30;;;9.55;;
33138;SDS011;19501;50.948;5.316;2023-04-03T07:55:47;22.70;;;9.38;;
33138;SDS011;19501;50.948;5.316;2023-04-03T07:58:17;21.48;;;8.70;;
33138;SDS011;19501;50.948;5.316;2023-04-03T08:00:44;20.90;;;8.32;;
33138;SDS011;19501;50.948;5.316;2023-04-03T08:03:10;22.77;;;7.80;;
33138;SDS011;19501;50.948;5.316;2023-04-03T08:05:40;20.23;;;8.07;;
33138;SDS011;19501;50.948;5.316;2023-04-03T08:08:06;22.25;;;7.80;;
33138;SDS011;19501;50.948;5.316;2023-04-03T08:10:32;18.27;;;7.38;;
33138;SDS011;19501;50.948;5.316;2023-04-03T08:12:59;19.75;;;7.32;;
33138;SDS011;19501;50.948;5.316;2023-04-03T08:15:25;17.52;;;7.30;;
33138;SDS011;19501;50.948;5.316;2023-04-03T08:17:51;19.48;;;6.65;;
33138;SDS011;19501;50.948;5.316;2023-04-03T08:20:17;21.17;;;7.53;;
33138;SDS011;19501;50.948;5.316;2023-04-03T08:22:43;17.73;;;6.82;;
33138;SDS011;19501;50.948;5.316;2023-04-03T08:25:09;20.98;;;6.57;;
33138;SDS011;19501;50.948;5.316;2023-04-03T08:27:37;20.00;;;6.40;;
33138;SDS011;19501;50.948;5.316;2023-04-03T08:30:03;18.15;;;6.45;;
33138;SDS011;19501;50.948;5.316;2023-04-03T08:32:29;18.70;;;6.45;;
33138;SDS011;19501;50.948;5.316;2023-04-03T08:34:55;16.00;;;6.15;;
33138;SDS011;19501;50.948;5.316;2023-04-03T08:37:21;20.17;;;6.28;;
33138;SDS011;19501;50.948;5.316;2023-04-03T08:39:46;14.93;;;5.93;;
33138;SDS011;19501;50.948;5.316;2023-04-03T08:45:22;20.17;;;6.75;;
33138;SDS011;19501;50.948;5.316;2023-04-03T08:48:08;20.42;;;6.28;;
33138;SDS011;19501;50.948;5.316;2023-04-03T08:50:46;20.63;;;6.43;;
33138;SDS011;19501;50.948;5.316;2023-04-03T08:53:18;19.45;;;6.28;;
33138;SDS011;19501;50.948;5.316;2023-04-03T08:55:50;20.70;;;5.97;;
33138;SDS011;19501;50.948;5.316;2023-04-03T08:58:20;15.57;;;4.40;;
33138;SDS011;19501;50.948;5.316;2023-04-03T09:01:02;14.35;;;4.93;;
33138;SDS011;19501;50.948;5.316;2023-04-03T09:03:48;13.35;;;4.78;;
33138;SDS011;19501;50.948;5.316;2023-04-03T09:08:49;17.13;;;5.03;;
33138;SDS011;19501;50.948;5.316;2023-04-03T09:20:23;18.55;;;4.72;;
33138;SDS011;19501;50.948;5.316;2023-04-03T09:26:08;16.42;;;5.28;;
33138;SDS011;19501;50.948;5.316;2023-04-03T09:28:46;10.60;;;4.53;;
33138;SDS011;19501;50.948;5.316;2023-04-03T09:31:26;10.70;;;4.38;;
33138;SDS011;19501;50.948;5.316;2023-04-03T09:33:56;14.75;;;4.32;;
33138;SDS011;19501;50.948;5.316;2023-04-03T09:39:25;14.60;;;4.25;;
33138;SDS011;19501;50.948;5.316;2023-04-03T09:42:00;10.52;;;4.53;;
33138;SDS011;19501;50.948;5.316;2023-04-03T09:44:32;13.23;;;3.97;;
33138;SDS011;19501;50.948;5.316;2023-04-03T09:47:17;15.60;;;4.72;;
33138;SDS011;19501;50.948;5.316;2023-04-03T09:49:50;17.40;;;4.60;;
33138;SDS011;19501;50.948;5.316;2023-04-03T09:52:33;14.82;;;4.05;;
33138;SDS011;19501;50.948;5.316;2023-04-03T09:55:07;13.27;;;4.88;;
33138;SDS011;19501;50.948;5.316;2023-04-03T09:57:38;16.17;;;4.28;;
33138;SDS011;19501;50.948;5.316;2023-04-03T10:00:04;16.08;;;4.15;;
33138;SDS011;19501;50.948;5.316;2023-04-03T10:02:35;14.35;;;4.35;;
33138;SDS011;19501;50.948;5.316;2023-04-03T10:05:03;16.17;;;4.20;;
33138;SDS011;19501;50.948;5.316;2023-04-03T10:07:49;14.85;;;3.83;;
33138;SDS011;19501;50.948;5.316;2023-04-03T10:12:47;10.38;;;3.55;;
33138;SDS011;19501;50.948;5.316;2023-04-03T10:15:15;10.73;;;3.53;;
33138;SDS011;19501;50.948;5.316;2023-04-03T10:21:03;12.55;;;3.38;;
33138;SDS011;19501;50.948;5.316;2023-04-03T10:23:26;12.05;;;3.13;;
33138;SDS011;19501;50.948;5.316;2023-04-03T10:28:38;12.10;;;3.42;;
33138;SDS011;19501;50.948;5.316;2023-04-03T10:42:22;8.55;;;2.72;;
33138;SDS011;19501;50.948;5.316;2023-04-03T10:50:27;10.90;;;3.10;;
33138;SDS011;19501;50.948;5.316;2023-04-03T10:58:39;9.80;;;2.50;;
33138;SDS011;19501;50.948;5.316;2023-04-03T11:01:10;7.72;;;2.08;;
33138;SDS011;19501;50.948;5.316;2023-04-03T11:03:44;8.43;;;2.10;;
33138;SDS011;19501;50.948;5.316;2023-04-03T11:06:13;5.57;;;2.10;;
33138;SDS011;19501;50.948;5.316;2023-04-03T11:08:52;6.65;;;2.35;;
33138;SDS011;19501;50.948;5.316;2023-04-03T11:11:24;7.15;;;1.98;;
33138;SDS011;19501;50.948;5.316;2023-04-03T11:13:55;6.03;;;1.90;;
33138;SDS011;19501;50.948;5.316;2023-04-03T11:16:42;6.22;;;2.00;;
33138;SDS011;19501;50.948;5.316;2023-04-03T11:19:34;4.00;;;1.80;;
33138;SDS011;19501;50.948;5.316;2023-04-03T11:22:25;8.73;;;2.45;;
33138;SDS011;19501;50.948;5.316;2023-04-03T11:24:58;9.80;;;3.60;;
33138;SDS011;19501;50.948;5.316;2023-04-03T11:27:41;6.38;;;2.00;;
33138;SDS011;19501;50.948;5.316;2023-04-03T11:30:33;5.82;;;2.17;;
33138;SDS011;19501;50.948;5.316;2023-04-03T11:33:31;4.88;;;2.17;;
33138;SDS011;19501;50.948;5.316;2023-04-03T11:36:12;8.80;;;2.65;;
33138;SDS011;19501;50.948;5.316;2023-04-03T11:38:48;5.70;;;2.38;;
33138;SDS011;19501;50.948;5.316;2023-04-03T11:41:16;3.97;;;2.33;;
33138;SDS011;19501;50.948;5.316;2023-04-03T11:44:04;4.50;;;1.92;;
33138;SDS011;19501;50.948;5.316;2023-04-03T11:46:54;8.40;;;2.50;;
33138;SDS011;19501;50.948;5.316;2023-04-03T12:29:27;8.30;;;2.90;;
33138;SDS011;19501;50.948;5.316;2023-04-03T12:32:17;9.43;;;3.30;;
33138;SDS011;19501;50.948;5.316;2023-04-03T12:46:36;8.40;;;3.00;;
33138;SDS011;19501;50.948;5.316;2023-04-03T12:49:12;8.02;;;2.95;;
33138;SDS011;19501;50.948;5.316;2023-04-03T12:52:00;9.15;;;2.95;;
33138;SDS011;19501;50.948;5.316;2023-04-03T12:54:38;8.55;;;2.75;;
33138;SDS011;19501;50.948;5.316;2023-04-03T12:59:37;9.60;;;3.00;;
33138;SDS011;19501;50.948;5.316;2023-04-03T13:02:09;5.15;;;2.40;;
33138;SDS011;19501;50.948;5.316;2023-04-03T13:04:44;7.38;;;2.90;;
33138;SDS011;19501;50.948;5.316;2023-04-03T13:07:20;6.65;;;2.55;;
33138;SDS011;19501;50.948;5.316;2023-04-03T13:10:38;8.15;;;3.00;;
33138;SDS011;19501;50.948;5.316;2023-04-03T13:12:58;10.13;;;3.08;;
33138;SDS011;19501;50.948;5.316;2023-04-03T13:15:41;12.88;;;3.40;;
33138;SDS011;19501;50.948;5.316;2023-04-03T13:18:27;9.68;;;3.22;;
33138;SDS011;19501;50.948;5.316;2023-04-03T13:20:58;11.60;;;3.65;;
33138;SDS011;19501;50.948;5.316;2023-04-03T13:23:31;8.18;;;3.40;;
33138;SDS011;19501;50.948;5.316;2023-04-03T13:25:59;9.82;;;3.10;;
33138;SDS011;19501;50.948;5.316;2023-04-03T13:28:28;13.98;;;3.25;;
33138;SDS011;19501;50.948;5.316;2023-04-03T13:31:04;4.75;;;2.70;;
33138;SDS011;19501;50.948;5.316;2023-04-03T13:33:54;11.05;;;3.90;;
33138;SDS011;19501;50.948;5.316;2023-04-03T13:41:45;12.27;;;3.70;;
33138;SDS011;19501;50.948;5.316;2023-04-03T13:46:51;9.40;;;3.40;;
33138;SDS011;19501;50.948;5.316;2023-04-03T13:49:35;8.90;;;3.70;;
33138;SDS011;19501;50.948;5.316;2023-04-03T13:52:22;9.77;;;3.30;;
33138;SDS011;19501;50.948;5.316;2023-04-03T13:55:02;10.05;;;3.40;;
33138;SDS011;19501;50.948;5.316;2023-04-03T14:00:36;7.43;;;3.15;;
33138;SDS011;19501;50.948;5.316;2023-04-03T14:03:07;8.88;;;3.17;;
33138;SDS011;19501;50.948;5.316;2023-04-03T14:05:57;9.05;;;3.47;;
33138;SDS011;19501;50.948;5.316;2023-04-03T14:08:23;10.93;;;3.45;;
33138;SDS011;19501;50.948;5.316;2023-04-03T14:10:49;9.75;;;3.88;;
33138;SDS011;19501;50.948;5.316;2023-04-03T14:13:17;9.50;;;3.67;;
33138;SDS011;19501;50.948;5.316;2023-04-03T14:15:44;10.27;;;3.50;;
33138;SDS011;19501;50.948;5.316;2023-04-03T14:18:13;9.60;;;3.85;;
33138;SDS011;19501;50.948;5.316;2023-04-03T14:20:44;9.70;;;3.60;;
33138;SDS011;19501;50.948;5.316;2023-04-03T14:23:10;10.15;;;3.20;;
33138;SDS011;19501;50.948;5.316;2023-04-03T14:25:36;11.23;;;3.45;;
33138;SDS011;19501;50.948;5.316;2023-04-03T14:28:14;12.98;;;3.20;;
33138;SDS011;19501;50.948;5.316;2023-04-03T14:30:42;10.48;;;3.47;;
33138;SDS011;19501;50.948;5.316;2023-04-03T14:33:12;12.77;;;3.58;;
33138;SDS011;19501;50.948;5.316;2023-04-03T14:35:40;10.98;;;3.40;;
33138;SDS011;19501;50.948;5.316;2023-04-03T14:38:12;9.77;;;3.60;;
33138;SDS011;19501;50.948;5.316;2023-04-03T14:40:50;8.07;;;3.22;;
33138;SDS011;19501;50.948;5.316;2023-04-03T14:43:16;8.93;;;3.78;;
33138;SDS011;19501;50.948;5.316;2023-04-03T14:45:42;6.95;;;2.90;;
33138;SDS011;19501;50.948;5.316;2023-04-03T14:48:10;17.70;;;5.28;;
33138;SDS011;19501;50.948;5.316;2023-04-03T14:50:47;9.93;;;3.72;;
33138;SDS011;19501;50.948;5.316;2023-04-03T14:53:14;14.48;;;4.35;;
33138;SDS011;19501;50.948;5.316;2023-04-03T14:55:42;17.48;;;3.85;;
33138;SDS011;19501;50.948;5.316;2023-04-03T14:58:14;12.85;;;3.50;;
33138;SDS011;19501;50.948;5.316;2023-04-03T15:00:41;12.13;;;3.60;;
33138;SDS011;19501;50.948;5.316;2023-04-03T15:03:12;9.15;;;3.53;;
33138;SDS011;19501;50.948;5.316;2023-04-03T15:05:48;10.63;;;3.85;;
33138;SDS011;19501;50.948;5.316;2023-04-03T15:08:24;9.82;;;3.35;;
33138;SDS011;19501;50.948;5.316;2023-04-03T15:10:54;8.63;;;3.45;;
33138;SDS011;19501;50.948;5.316;2023-04-03T15:13:23;9.02;;;3.30;;
33138;SDS011;19501;50.948;5.316;2023-04-03T15:15:50;14.05;;;4.18;;
33138;SDS011;19501;50.948;5.316;2023-04-03T15:18:18;10.40;;;3.63;;
33138;SDS011;19501;50.948;5.316;2023-04-03T15:20:46;8.50;;;3.25;;
33138;SDS011;19501;50.948;5.316;2023-04-03T15:23:13;10.10;;;3.28;;
33138;SDS011;19501;50.948;5.316;2023-04-03T15:25:41;10.80;;;3.97;;
33138;SDS011;19501;50.948;5.316;2023-04-03T15:28:30;8.55;;;3.00;;
33138;SDS011;19501;50.948;5.316;2023-04-03T15:30:58;14.43;;;4.05;;
33138;SDS011;19501;50.948;5.316;2023-04-03T15:33:24;10.45;;;3.38;;
33138;SDS011;19501;50.948;5.316;2023-04-03T15:35:50;10.63;;;3.50;;
33138;SDS011;19501;50.948;5.316;2023-04-03T15:38:16;9.82;;;2.80;;
33138;SDS011;19501;50.948;5.316;2023-04-03T15:40:42;5.13;;;2.95;;
33138;SDS011;19501;50.948;5.316;2023-04-03T15:43:08;10.50;;;3.55;;
33138;SDS011;19501;50.948;5.316;2023-04-03T15:45:35;16.40;;;3.63;;
33138;SDS011;19501;50.948;5.316;2023-04-03T15:48:04;7.50;;;3.13;;
33138;SDS011;19501;50.948;5.316;2023-04-03T15:50:31;6.97;;;2.88;;
33138;SDS011;19501;50.948;5.316;2023-04-03T15:52:58;6.15;;;2.88;;
33138;SDS011;19501;50.948;5.316;2023-04-03T15:55:26;8.30;;;3.22;;
33138;SDS011;19501;50.948;5.316;2023-04-03T15:57:56;8.50;;;3.22;;
33138;SDS011;19501;50.948;5.316;2023-04-03T16:00:22;7.40;;;3.00;;
33138;SDS011;19501;50.948;5.316;2023-04-03T16:02:50;8.20;;;2.85;;
33138;SDS011;19501;50.948;5.316;2023-04-03T16:05:18;8.38;;;2.92;;
33138;SDS011;19501;50.948;5.316;2023-04-03T16:07:44;8.32;;;2.78;;
33138;SDS011;19501;50.948;5.316;2023-04-03T16:10:10;10.55;;;3.10;;
33138;SDS011;19501;50.948;5.316;2023-04-03T16:12:36;11.45;;;3.00;;
33138;SDS011;19501;50.948;5.316;2023-04-03T16:15:02;8.40;;;3.10;;
33138;SDS011;19501;50.948;5.316;2023-04-03T16:17:28;9.18;;;3.10;;
33138;SDS011;19501;50.948;5.316;2023-04-03T16:19:55;7.10;;;2.90;;
33138;SDS011;19501;50.948;5.316;2023-04-03T16:22:21;9.05;;;3.13;;
33138;SDS011;19501;50.948;5.316;2023-04-03T16:24:48;7.85;;;2.80;;
33138;SDS011;19501;50.948;5.316;2023-04-03T16:27:14;5.22;;;2.78;;
33138;SDS011;19501;50.948;5.316;2023-04-03T16:29:40;9.85;;;3.20;;
33138;SDS011;19501;50.948;5.316;2023-04-03T16:32:06;8.35;;;2.85;;
33138;SDS011;19501;50.948;5.316;2023-04-03T16:34:32;9.90;;;3.20;;
33138;SDS011;19501;50.948;5.316;2023-04-03T16:37:00;8.55;;;2.78;;
33138;SDS011;19501;50.948;5.316;2023-04-03T16:39:25;12.35;;;3.47;;
33138;SDS011;19501;50.948;5.316;2023-04-03T16:41:51;9.48;;;3.28;;
33138;SDS011;19501;50.948;5.316;2023-04-03T16:44:17;10.20;;;2.85;;
33138;SDS011;19501;50.948;5.316;2023-04-03T16:46:42;10.52;;;3.47;;